createdAt,value
2022-11-03T00:01:14.976Z,16.75
2022-11-03T00:03:42.830Z,16.73
2022-11-03T00:06:10.731Z,16.68
2022-11-03T00:08:41.911Z,16.66
2022-11-03T00:11:12.055Z,16.64
2022-11-03T00:13:41.371Z,16.59
2022-11-03T00:16:10.775Z,16.53
2022-11-03T00:18:39.120Z,16.39
2022-11-03T00:21:09.691Z,16.57
2022-11-03T00:23:40.690Z,16.58
2022-11-03T00:26:11.140Z,16.58
2022-11-03T00:28:39.898Z,16.56
2022-11-03T00:31:10.092Z,16.55
2022-11-03T00:33:38.790Z,16.58
2022-11-03T00:36:08.223Z,16.56
2022-11-03T00:38:37.610Z,16.50
2022-11-03T00:41:07.865Z,16.51
2022-11-03T00:43:36.560Z,16.52
2022-11-03T00:46:06.139Z,16.42
2022-11-03T00:48:34.722Z,16.48
2022-11-03T00:51:08.596Z,16.44
2022-11-03T00:53:38.802Z,16.31
2022-11-03T00:56:11.299Z,16.40
2022-11-03T00:58:39.107Z,16.35
2022-11-03T01:01:09.431Z,16.36
2022-11-03T01:03:39.343Z,15.58
2022-11-03T01:06:25.890Z,16.31
2022-11-03T01:08:53.731Z,16.23
2022-11-03T01:11:42.315Z,16.20
2022-11-03T01:14:11.157Z,16.21
2022-11-03T01:16:39.369Z,16.21
2022-11-03T01:19:07.251Z,16.16
2022-11-03T01:21:35.606Z,16.17
2022-11-03T01:24:03.937Z,16.14
2022-11-03T01:26:33.296Z,16.13
2022-11-03T01:29:01.753Z,16.12
2022-11-03T01:31:30.377Z,16.10
2022-11-03T01:33:58.807Z,16.03
2022-11-03T01:36:27.330Z,16.03
2022-11-03T01:38:56.199Z,16.03
2022-11-03T01:41:26.439Z,16.07
2022-11-03T01:44:27.050Z,16.06
2022-11-03T01:47:00.871Z,16.03
2022-11-03T01:49:34.623Z,15.99
2022-11-03T01:52:07.890Z,15.99
2022-11-03T01:54:37.818Z,15.96
2022-11-03T01:57:10.075Z,15.90
2022-11-03T01:59:40.752Z,15.66
2022-11-03T02:02:09.032Z,15.66
2022-11-03T02:04:37.332Z,15.86
2022-11-03T02:07:15.753Z,15.76
2022-11-03T02:09:43.683Z,15.77
2022-11-03T02:12:11.910Z,15.70
2022-11-03T02:14:45.102Z,15.65
2022-11-03T02:17:15.646Z,15.61
2022-11-03T02:19:48.466Z,14.80
2022-11-03T02:22:36.147Z,15.56
2022-11-03T02:25:15.240Z,15.53
2022-11-03T02:27:45.126Z,15.47
2022-11-03T02:30:13.473Z,15.42
2022-11-03T02:32:50.932Z,15.37
2022-11-03T02:35:24.581Z,15.39
2022-11-03T02:37:56.986Z,15.38
2022-11-03T02:40:30.509Z,15.15
2022-11-03T02:43:02.990Z,15.30
2022-11-03T02:45:32.298Z,15.30
2022-11-03T02:48:03.069Z,15.30
2022-11-03T02:50:33.513Z,15.32
2022-11-03T02:53:01.940Z,15.29
2022-11-03T02:55:36.890Z,15.28
2022-11-03T02:58:13.794Z,15.31
2022-11-03T03:00:50.153Z,15.11
2022-11-03T03:03:22.354Z,15.30
2022-11-03T03:05:54.079Z,15.30
2022-11-03T03:08:24.594Z,15.30
2022-11-03T03:10:54.186Z,15.34
2022-11-03T03:13:25.286Z,15.11
2022-11-03T03:16:05.523Z,15.35
2022-11-03T03:18:43.308Z,15.33
2022-11-03T03:21:16.204Z,15.34
2022-11-03T03:23:49.855Z,15.23
2022-11-03T03:26:25.443Z,15.33
2022-11-03T03:28:58.661Z,15.30
2022-11-03T03:31:28.975Z,15.26
2022-11-03T03:34:04.285Z,15.26
2022-11-03T03:36:36.113Z,15.20
2022-11-03T03:39:08.214Z,15.13
2022-11-03T03:41:39.140Z,15.05
2022-11-03T03:44:11.608Z,15.04
2022-11-03T03:46:43.836Z,15.04
2022-11-03T03:49:11.835Z,14.93
2022-11-03T03:51:40.139Z,14.87
2022-11-03T03:54:07.967Z,14.81
2022-11-03T03:56:42.691Z,14.76
2022-11-03T03:59:11.911Z,14.74
2022-11-03T04:01:39.922Z,14.72
2022-11-03T04:04:07.813Z,14.64
2022-11-03T04:06:35.633Z,14.51
2022-11-03T04:09:03.474Z,14.62
2022-11-03T04:11:48.984Z,14.53
2022-11-03T04:14:35.839Z,14.39
2022-11-03T04:17:21.243Z,14.39
2022-11-03T04:20:06.748Z,14.33
2022-11-03T04:22:35.195Z,14.29
2022-11-03T04:25:03.111Z,14.22
2022-11-03T04:27:34.029Z,14.21
2022-11-03T04:30:14.362Z,14.13
2022-11-03T04:32:42.674Z,14.08
2022-11-03T04:35:18.743Z,14.00
2022-11-03T04:37:49.178Z,13.93
2022-11-03T04:40:18.239Z,13.90
2022-11-03T04:42:47.464Z,13.86
2022-11-03T04:45:30.232Z,13.83
2022-11-03T04:48:00.158Z,13.79
2022-11-03T04:50:28.065Z,13.74
2022-11-03T04:52:58.130Z,13.75
2022-11-03T04:55:26.202Z,13.67
2022-11-03T04:57:58.314Z,13.72
2022-11-03T05:00:27.690Z,13.70
2022-11-03T05:02:56.517Z,13.75
2022-11-03T05:05:27.249Z,13.86
2022-11-03T05:07:56.931Z,13.80
2022-11-03T05:10:27.068Z,13.65
2022-11-03T05:12:56.117Z,13.33
2022-11-03T05:15:36.026Z,13.73
2022-11-03T05:18:14.862Z,13.77
2022-11-03T05:20:46.358Z,13.85
2022-11-03T05:23:15.270Z,13.93
2022-11-03T05:25:46.475Z,14.03
2022-11-03T05:28:23.823Z,14.23
2022-11-03T05:30:53.904Z,13.95
2022-11-03T05:33:29.638Z,13.95
2022-11-03T05:35:59.674Z,13.82
2022-11-03T05:38:31.725Z,13.83
2022-11-03T05:41:00.129Z,14.03
2022-11-03T05:43:29.950Z,13.64
2022-11-03T05:46:02.812Z,13.94
2022-11-03T05:48:34.301Z,13.66
2022-11-03T05:51:11.894Z,13.77
2022-11-03T05:53:43.326Z,14.39
2022-11-03T05:56:17.610Z,14.56
2022-11-03T05:58:46.109Z,14.56
2022-11-03T06:01:21.687Z,14.52
2022-11-03T06:03:49.682Z,14.58
2022-11-03T06:06:22.043Z,14.87
2022-11-03T06:08:50.178Z,14.47
2022-11-03T06:11:26.946Z,14.97
2022-11-03T06:13:57.273Z,15.00
2022-11-03T06:16:44.305Z,15.23
2022-11-03T06:19:29.622Z,15.05
2022-11-03T06:22:00.110Z,15.69
2022-11-03T06:24:32.372Z,15.64
2022-11-03T06:27:00.337Z,15.98
2022-11-03T06:29:31.734Z,16.38
2022-11-03T06:32:01.723Z,16.48
2022-11-03T06:34:40.522Z,16.47
2022-11-03T06:37:22.439Z,16.82
2022-11-03T06:39:52.165Z,16.88
2022-11-03T06:42:26.672Z,16.84
2022-11-03T06:44:57.291Z,17.17
2022-11-03T06:47:28.634Z,16.88
2022-11-03T06:49:59.235Z,16.85
2022-11-03T06:52:29.992Z,17.08
2022-11-03T06:55:33.334Z,17.06
2022-11-03T06:58:05.737Z,17.28
2022-11-03T07:00:35.094Z,17.04
2022-11-03T07:03:10.460Z,17.41
2022-11-03T07:05:40.322Z,18.12
2022-11-03T07:08:19.823Z,17.97
2022-11-03T07:10:48.893Z,18.50
2022-11-03T07:13:20.808Z,18.33
2022-11-03T07:15:48.679Z,18.57
2022-11-03T07:18:23.496Z,18.82
2022-11-03T07:20:53.041Z,19.33
2022-11-03T07:23:24.715Z,19.13
2022-11-03T07:25:54.666Z,18.85
2022-11-03T07:28:25.597Z,19.16
2022-11-03T07:30:53.766Z,18.73
2022-11-03T07:33:27.551Z,19.58
2022-11-03T07:38:47.370Z,19.83
2022-11-03T07:41:19.728Z,18.58
2022-11-03T07:43:52.561Z,20.07
2022-11-03T07:46:22.129Z,20.30
2022-11-03T07:48:54.638Z,20.37
2022-11-03T07:51:25.069Z,20.32
2022-11-03T07:53:56.029Z,20.62
2022-11-03T07:56:26.450Z,20.78
2022-11-03T07:59:00.109Z,21.15
2022-11-03T08:01:30.911Z,21.16
2022-11-03T08:04:05.328Z,21.27
2022-11-03T08:06:33.224Z,20.96
2022-11-03T08:09:01.112Z,21.06
2022-11-03T08:11:29.895Z,21.12
2022-11-03T08:13:58.250Z,20.40
2022-11-03T08:16:26.140Z,20.63
2022-11-03T08:18:54.005Z,20.91
2022-11-03T08:21:23.317Z,21.18
2022-11-03T08:23:51.902Z,21.43
2022-11-03T08:26:19.867Z,21.63
2022-11-03T08:28:47.877Z,21.45
2022-11-03T08:31:15.945Z,21.61
2022-11-03T08:33:43.793Z,21.39
2022-11-03T08:36:11.882Z,21.20
2022-11-03T08:38:41.364Z,21.58
2022-11-03T08:41:09.221Z,22.14
2022-11-03T08:43:37.063Z,22.54
2022-11-03T08:46:13.002Z,22.61
2022-11-03T08:48:44.815Z,22.52
2022-11-03T08:51:13.847Z,22.33
2022-11-03T08:53:43.766Z,22.63
2022-11-03T08:56:13.558Z,22.15
2022-11-03T08:58:44.129Z,22.25
2022-11-03T09:01:12.344Z,22.43
2022-11-03T09:03:40.407Z,22.86
2022-11-03T09:06:09.257Z,22.25
2022-11-03T09:11:26.417Z,22.52
2022-11-03T09:13:54.436Z,22.67
2022-11-03T09:16:22.600Z,22.55
2022-11-03T09:18:50.438Z,22.98
2022-11-03T09:21:18.398Z,23.14
2022-11-03T09:23:46.353Z,23.18
2022-11-03T09:26:14.419Z,23.31
2022-11-03T09:28:43.668Z,23.21
2022-11-03T09:31:11.516Z,22.99
2022-11-03T09:33:39.673Z,22.65
2022-11-03T09:36:08.103Z,22.77
2022-11-03T09:38:35.960Z,23.05
2022-11-03T09:41:09.780Z,23.14
2022-11-03T09:43:49.916Z,22.70
2022-11-03T09:46:19.257Z,23.06
2022-11-03T09:48:47.369Z,23.33
2022-11-03T09:51:20.846Z,23.75
2022-11-03T09:53:49.358Z,23.64
2022-11-03T09:56:20.517Z,23.69
2022-11-03T09:58:54.090Z,23.36
2022-11-03T10:01:22.908Z,23.04
2022-11-03T10:03:51.029Z,23.38
2022-11-03T10:06:21.343Z,23.64
2022-11-03T10:08:50.038Z,23.29
2022-11-03T10:11:18.100Z,22.96
2022-11-03T10:13:49.032Z,23.18
2022-11-03T10:16:21.314Z,23.64
2022-11-03T10:18:49.719Z,23.80
2022-11-03T10:21:20.049Z,23.14
2022-11-03T10:23:50.226Z,22.89
2022-11-03T10:26:20.010Z,23.61
2022-11-03T10:29:02.258Z,23.71
2022-11-03T10:31:36.232Z,23.90
2022-11-03T10:34:05.087Z,23.86
2022-11-03T10:36:33.948Z,23.68
2022-11-03T10:39:25.729Z,23.37
2022-11-03T10:41:58.755Z,23.38
2022-11-03T10:44:28.724Z,23.66
2022-11-03T10:47:00.093Z,23.51
2022-11-03T10:49:30.358Z,23.94
2022-11-03T10:52:09.334Z,24.21
2022-11-03T10:54:38.189Z,24.46
2022-11-03T10:57:06.506Z,23.78
2022-11-03T10:59:37.554Z,24.43
2022-11-03T11:02:16.989Z,24.34
2022-11-03T11:04:45.293Z,24.64
2022-11-03T11:07:26.468Z,24.97
2022-11-03T11:09:55.090Z,25.03
2022-11-03T11:12:24.640Z,25.00
2022-11-03T11:14:58.063Z,25.05
2022-11-03T11:17:43.314Z,25.19
2022-11-03T11:20:44.295Z,24.93
2022-11-03T11:23:52.909Z,25.09
2022-11-03T11:26:33.455Z,25.22
2022-11-03T11:29:44.211Z,25.27
2022-11-03T11:33:00.621Z,25.58
2022-11-03T11:36:05.791Z,25.24
2022-11-03T11:38:59.093Z,24.96
2022-11-03T11:42:05.072Z,25.06
2022-11-03T11:44:48.057Z,25.41
2022-11-03T11:47:31.271Z,25.49
2022-11-03T11:50:18.570Z,25.25
2022-11-03T11:52:49.577Z,25.45
2022-11-03T11:55:21.859Z,25.63
2022-11-03T11:57:49.901Z,25.61
2022-11-03T12:00:23.983Z,25.68
2022-11-03T12:02:52.993Z,25.32
2022-11-03T12:05:23.195Z,25.31
2022-11-03T12:07:51.189Z,25.68
2022-11-03T12:10:23.325Z,25.62
2022-11-03T12:12:51.621Z,25.53
2022-11-03T12:15:51.068Z,25.46
2022-11-03T12:18:37.945Z,25.66
2022-11-03T12:21:09.806Z,25.32
2022-11-03T12:23:41.242Z,25.46
2022-11-03T12:26:40.412Z,25.76
2022-11-03T12:29:08.355Z,26.10
2022-11-03T12:31:37.118Z,26.20
2022-11-03T12:34:05.070Z,26.10
2022-11-03T12:36:32.903Z,26.18
2022-11-03T12:39:00.788Z,26.12
2022-11-03T12:41:29.994Z,26.04
2022-11-03T12:43:57.901Z,25.78
2022-11-03T12:46:25.947Z,25.71
2022-11-03T12:48:53.925Z,25.70
2022-11-03T12:51:23.883Z,25.15
2022-11-03T12:53:52.018Z,25.29
2022-11-03T12:56:20.211Z,25.04
2022-11-03T12:58:49.410Z,25.14
2022-11-03T13:01:17.457Z,25.35
2022-11-03T13:03:45.394Z,25.33
2022-11-03T13:06:14.836Z,25.35
2022-11-03T13:08:44.676Z,25.35
2022-11-03T13:11:28.339Z,25.33
2022-11-03T13:13:58.003Z,25.25
2022-11-03T13:16:25.998Z,25.25
2022-11-03T13:18:53.835Z,24.89
2022-11-03T13:21:21.678Z,24.78
2022-11-03T13:23:49.527Z,24.84
2022-11-03T13:26:17.393Z,24.82
2022-11-03T13:28:45.513Z,24.62
2022-11-03T13:31:14.743Z,24.42
2022-11-03T13:33:42.566Z,24.34
2022-11-03T13:36:44.264Z,24.18
2022-11-03T13:39:12.705Z,23.89
2022-11-03T13:41:40.616Z,23.90
2022-11-03T13:44:08.868Z,23.86
2022-11-03T13:46:38.125Z,23.70
2022-11-03T13:49:52.041Z,23.56
2022-11-03T13:51:54.122Z,23.74
2022-11-03T14:00:01.877Z,23.38
2022-11-03T14:05:21.802Z,23.21
2022-11-03T14:07:49.944Z,23.14
2022-11-03T14:10:18.089Z,23.03
2022-11-03T14:12:45.040Z,22.88
2022-11-03T14:15:14.371Z,22.70
2022-11-03T14:17:43.682Z,22.69
2022-11-03T14:20:13.746Z,22.59
2022-11-03T14:22:42.198Z,22.43
2022-11-03T14:25:10.532Z,22.48
2022-11-03T14:27:38.627Z,22.52
2022-11-03T14:30:07.931Z,22.50
2022-11-03T14:32:35.862Z,22.41
2022-11-03T14:35:05.835Z,22.21
2022-11-03T14:37:33.870Z,22.44
2022-11-03T14:40:01.849Z,22.30
2022-11-03T14:42:31.654Z,22.20
2022-11-03T14:44:59.551Z,22.09
2022-11-03T14:47:30.317Z,22.05
2022-11-03T14:49:58.515Z,21.83
2022-11-03T14:52:27.806Z,21.73
2022-11-03T14:54:55.751Z,21.48
2022-11-03T14:57:23.669Z,21.37
2022-11-03T14:59:53.627Z,21.40
2022-11-03T15:02:22.094Z,21.32
2022-11-03T15:04:50.086Z,21.21
2022-11-03T15:07:17.952Z,21.15
2022-11-03T15:09:47.160Z,20.98
2022-11-03T15:12:15.039Z,20.58
2022-11-03T15:14:42.908Z,20.71
2022-11-03T15:17:10.737Z,20.50
2022-11-03T15:19:38.588Z,20.50
2022-11-03T15:22:06.652Z,20.29
2022-11-03T15:27:23.819Z,20.20
2022-11-03T15:29:51.854Z,20.03
2022-11-03T15:32:19.747Z,20.05
2022-11-03T15:34:47.610Z,19.97
2022-11-03T15:37:15.688Z,20.01
2022-11-03T15:39:43.552Z,19.89
2022-11-03T15:42:11.393Z,19.81
2022-11-03T15:44:40.575Z,19.70
2022-11-03T15:47:08.430Z,19.63
2022-11-03T15:49:36.275Z,19.44
2022-11-03T15:52:04.123Z,19.32
2022-11-03T15:54:31.983Z,19.24
2022-11-03T15:56:59.870Z,19.09
2022-11-03T15:59:27.817Z,19.06
2022-11-03T16:02:08.492Z,18.90
2022-11-03T16:04:44.908Z,18.82
2022-11-03T16:07:12.778Z,18.63
2022-11-03T16:09:40.622Z,18.57
2022-11-03T16:12:09.064Z,18.63
2022-11-03T16:14:36.894Z,18.56
2022-11-03T16:17:06.949Z,18.62
2022-11-03T16:19:34.804Z,18.51
2022-11-03T16:22:02.864Z,18.32
2022-11-03T16:24:35.119Z,17.98
2022-11-03T16:27:03.943Z,17.62
2022-11-03T16:29:31.917Z,17.37
2022-11-03T16:31:59.778Z,17.27
2022-11-03T16:34:29.282Z,17.23
2022-11-03T16:36:57.342Z,17.33
2022-11-03T16:39:25.184Z,17.39
2022-11-03T16:41:55.183Z,17.44
2022-11-03T16:44:23.205Z,17.46
2022-11-03T16:46:51.154Z,17.44
2022-11-03T16:49:19.095Z,17.39
2022-11-03T16:51:48.298Z,17.37
2022-11-03T16:54:16.280Z,17.32
2022-11-03T16:56:44.398Z,17.24
2022-11-03T16:59:13.160Z,17.20
2022-11-03T17:01:42.436Z,17.08
2022-11-03T17:04:11.324Z,16.98
2022-11-03T17:06:39.916Z,16.88
2022-11-03T17:09:13.266Z,16.80
2022-11-03T17:11:42.178Z,16.68
2022-11-03T17:14:13.841Z,16.57
2022-11-03T17:16:45.788Z,16.52
2022-11-03T17:19:14.558Z,16.46
2022-11-03T17:21:43.447Z,16.33
2022-11-03T17:24:13.434Z,16.24
2022-11-03T17:26:52.422Z,16.19
2022-11-03T17:29:23.638Z,16.14
2022-11-03T17:31:52.054Z,16.03
2022-11-03T17:34:24.254Z,16.01
2022-11-03T17:36:53.476Z,15.97
2022-11-03T17:39:28.775Z,15.88
2022-11-03T17:42:07.902Z,15.75
2022-11-03T17:44:35.752Z,15.68
2022-11-03T17:47:03.596Z,15.57
2022-11-03T17:49:31.458Z,15.42
2022-11-03T17:52:00.325Z,15.29
2022-11-03T17:54:31.379Z,15.20
2022-11-03T17:57:01.080Z,14.90
2022-11-03T17:59:29.501Z,15.12
2022-11-03T18:01:57.525Z,15.06
2022-11-03T18:04:25.705Z,15.02
2022-11-03T18:06:53.557Z,14.97
2022-11-03T18:09:21.838Z,14.93
2022-11-03T18:12:08.483Z,14.84
2022-11-03T18:14:36.369Z,14.80
2022-11-03T18:17:04.336Z,14.83
2022-11-03T18:19:32.293Z,14.82
2022-11-03T18:22:00.161Z,14.85
2022-11-03T18:24:28.320Z,14.84
2022-11-03T18:26:57.946Z,14.85
2022-11-03T18:29:25.906Z,14.84
2022-11-03T18:31:53.848Z,14.83
2022-11-03T18:34:25.100Z,14.86
2022-11-03T18:36:53.666Z,14.87
2022-11-03T18:39:25.303Z,14.91
2022-11-03T18:41:53.841Z,14.89
2022-11-03T18:44:25.155Z,14.89
2022-11-03T18:46:55.659Z,14.87
2022-11-03T18:49:25.313Z,14.86
2022-11-03T18:52:02.479Z,14.81
2022-11-03T18:54:33.899Z,14.80
2022-11-03T18:57:02.624Z,14.79
2022-11-03T18:59:35.121Z,14.80
2022-11-03T19:02:03.408Z,14.81
2022-11-03T19:04:32.183Z,14.78
2022-11-03T19:07:00.520Z,14.76
2022-11-03T19:09:28.609Z,14.74
2022-11-03T19:11:58.802Z,14.25
2022-11-03T19:14:32.051Z,14.72
2022-11-03T19:19:53.865Z,14.82
2022-11-03T19:22:23.218Z,14.89
2022-11-03T19:24:51.159Z,14.91
2022-11-03T19:27:22.621Z,14.93
2022-11-03T19:29:50.638Z,14.92
2022-11-03T19:32:25.308Z,14.83
2022-11-03T19:34:57.784Z,14.78
2022-11-03T19:37:31.006Z,14.68
2022-11-03T19:40:02.241Z,14.63
2022-11-03T19:42:29.331Z,14.56
2022-11-03T19:44:58.157Z,14.49
2022-11-03T19:47:32.567Z,14.46
2022-11-03T19:50:02.460Z,14.30
2022-11-03T19:52:31.661Z,14.34
2022-11-03T19:55:02.967Z,14.30
2022-11-03T19:57:30.857Z,14.27
2022-11-03T19:59:59.128Z,14.19
2022-11-03T20:02:29.168Z,14.13
2022-11-03T20:04:57.200Z,14.12
2022-11-03T20:07:30.923Z,14.06
2022-11-03T20:09:59.679Z,14.04
2022-11-03T20:12:27.585Z,13.70
2022-11-03T20:14:55.460Z,13.93
2022-11-03T20:17:24.600Z,13.84
2022-11-03T20:19:54.016Z,13.83
2022-11-03T20:22:31.210Z,13.77
2022-11-03T20:25:03.285Z,13.72
2022-11-03T20:27:31.290Z,13.68
2022-11-03T20:29:59.769Z,13.61
2022-11-03T20:32:27.602Z,13.66
2022-11-03T20:34:57.038Z,13.69
2022-11-03T20:37:24.886Z,13.56
2022-11-03T20:39:52.809Z,13.69
2022-11-03T20:42:23.194Z,13.69
2022-11-03T20:44:51.518Z,13.38
2022-11-03T20:47:20.047Z,13.74
2022-11-03T20:49:48.455Z,13.81
2022-11-03T20:52:17.949Z,13.84
2022-11-03T20:54:46.217Z,13.85
2022-11-03T20:57:14.566Z,13.86
2022-11-03T20:59:42.672Z,13.83
2022-11-03T21:02:14.502Z,13.83
2022-11-03T21:04:44.149Z,13.57
2022-11-03T21:07:13.782Z,13.78
2022-11-03T21:09:43.078Z,13.65
2022-11-03T21:12:14.515Z,13.67
2022-11-03T21:15:05.211Z,13.67
2022-11-03T21:17:50.676Z,13.72
2022-11-03T21:20:18.626Z,13.75
2022-11-03T21:22:52.455Z,13.73
2022-11-03T21:25:24.525Z,13.69
2022-11-03T21:27:53.621Z,13.67
2022-11-03T21:30:21.973Z,13.63
2022-11-03T21:32:49.840Z,13.46
2022-11-03T21:35:21.692Z,13.48
2022-11-03T21:37:49.618Z,13.35
2022-11-03T21:40:17.676Z,13.45
2022-11-03T21:43:04.357Z,13.27
2022-11-03T21:45:32.268Z,12.81
2022-11-03T21:48:18.028Z,13.42
2022-11-03T21:50:46.209Z,13.50
2022-11-03T21:53:14.369Z,13.53
2022-11-03T21:55:42.353Z,13.55
2022-11-03T21:58:11.566Z,13.51
2022-11-03T22:00:39.418Z,13.52
2022-11-03T22:03:07.741Z,13.50
2022-11-03T22:05:35.842Z,13.49
2022-11-03T22:08:03.723Z,13.50
2022-11-03T22:10:31.580Z,13.52
2022-11-03T22:12:59.402Z,13.50
2022-11-03T22:15:46.214Z,13.30
2022-11-03T22:18:14.071Z,13.56
2022-11-03T22:20:59.445Z,13.51
2022-11-03T22:23:44.751Z,13.54
2022-11-03T22:26:32.738Z,13.49
2022-11-03T22:29:18.113Z,13.37
2022-11-03T22:31:47.415Z,13.50
2022-11-03T22:34:32.527Z,12.78
2022-11-03T22:37:00.393Z,13.29
2022-11-03T22:39:45.632Z,13.35
2022-11-03T22:42:31.492Z,13.31
2022-11-03T22:45:16.744Z,13.26
2022-11-03T22:47:45.999Z,13.23
2022-11-03T22:50:14.048Z,13.16
2022-11-03T22:52:41.978Z,13.12
2022-11-03T22:55:09.077Z,13.08
2022-11-03T22:57:36.897Z,12.84
2022-11-03T23:00:06.767Z,13.06
2022-11-03T23:02:34.704Z,12.80
2022-11-03T23:05:07.069Z,13.01
2022-11-03T23:07:40.776Z,12.92
2022-11-03T23:10:09.936Z,12.88
2022-11-03T23:12:37.827Z,12.83
2022-11-03T23:15:29.693Z,12.55
2022-11-03T23:18:15.058Z,12.69
2022-11-03T23:21:01.702Z,12.73
2022-11-03T23:23:47.259Z,12.72
2022-11-03T23:26:15.221Z,12.71
2022-11-03T23:28:43.471Z,12.67
2022-11-03T23:31:11.676Z,12.68
2022-11-03T23:33:39.997Z,12.65
2022-11-03T23:36:11.912Z,12.62
2022-11-03T23:38:40.738Z,12.63
2022-11-03T23:41:11.034Z,12.55
2022-11-03T23:43:39.305Z,12.56
2022-11-03T23:46:24.866Z,12.53
2022-11-03T23:48:53.624Z,12.49
2022-11-03T23:51:24.461Z,12.44
2022-11-03T23:53:53.045Z,12.38
2022-11-03T23:56:39.913Z,12.33
2022-11-03T23:59:08.751Z,12.30
